x

Shumagin Islands - 85nm South Of Sand Point, Ak (46075) Wave Buoy

12:50 - Wed 27th Aug 2014 All times are UTC.

  • Sig Wave height 7.5ft
  • Peak Period 8s
  • Average Period 6s
  • Wind
    18mph, 22mph gusts
  • Sea Temp 56°f
  • Aire Temp 56°f
  • Sea Pressure 1010.6mb

More Historic Weather Station data

Upgrade to MSW Pro to gain access to the past 30 days of data for over 8000 Wavebouys and Weather Stations around the globe.

Join Pro

Comparision Forecast

View Surf forecast
   
mié 08/27 12:50 7.5ft 8s 6s 18 22 mph 1010.6mb 56f 56f
11:50 7ft 7s 6s 18 20 mph 1011.2mb 56f 56f
10:50 6.5ft 7s 5s 20 25 mph 1011.7mb 57f 56f
9:50 6ft 7s 5s 20 25 mph 1012.1mb 57f 56f
8:50 6ft 7s 5s 18 22 mph 1012.5mb 57f 56f
7:50  -   -   -  22 27 mph 1013.2mb 57f 56f
6:50 6ft 6s 5s 22 27 mph 1013.5mb 57f 56f
5:50 5.5ft 6s 5s 20 22 mph 1014.2mb 57f 56f
4:50 5ft 6s 5s 20 25 mph 1014.8mb 57f 56f
3:50 5ft 6s 4s 20 22 mph 1015.6mb 57f 56f
2:50 4.5ft 5s 5s 18 22 mph 1016.4mb 57f 56f
1:50 4.5ft 8s 5s 18 20 mph 1017.3mb 57f 56f
12:50 4ft 7s 5s 16 18 mph 1018.1mb 57f 56f
mar 08/26 11:50 4ft 8s 5s 13 18 mph 1018.8mb 57f 56f
10:50 3.5ft 7s 5s 13 18 mph 1019.3mb 57f 56f
9:50 3.5ft 7s 5s 9 11 mph 1019.6mb 57f 56f
8:50 4.5ft 8s 6s 11 13 mph 1020.1mb 57f 55f
7:50 4.5ft 8s 6s 7 9 mph 1020.1mb 57f 55f
6:50 5ft 8s 5s 9 11 mph 1019.8mb 57f 55f
5:50 5ft 8s 5s 13 16 mph 1019.9mb 57f 55f
4:50 6ft 8s 6s 13 18 mph 1019.6mb 57f 55f
3:50 6ft 8s 6s 13 18 mph 1019.6mb 57f 55f
2:50 6ft 8s 6s 13 16 mph 1019.5mb 57f 54f
1:50 6.5ft 8s 6s 16 18 mph 1019.6mb 57f 54f
12:50 7ft 8s 6s 18 20 mph 1019.4mb 56f 54f
11:50 7ft 8s 6s 18 20 mph 1019.2mb 56f 55f
10:50 7.5ft 9s 6s 18 20 mph 1019.1mb 56f 55f
9:50 7ft 8s 6s 18 22 mph 1019.1mb 56f 55f
8:50 7.5ft 8s 6s 20 25 mph 1018.7mb 56f 55f
7:50 8ft 9s 6s 20 25 mph 1018.3mb 56f 55f
6:50 8.5ft 9s 6s 20 25 mph 1018mb 56f 55f
5:50 9.5ft 9s 6s 22 25 mph 1017.6mb 56f 55f
4:50 10ft 9s 6s 22 27 mph 1017.2mb 56f 55f
3:50 11ft 8s 7s 22 29 mph 1016.7mb 56f 55f
2:50 11ft 9s 6s 22 27 mph 1016.3mb 56f 55f
1:50 11ft 10s 7s 25 29 mph 1015.9mb 56f 55f
12:50 11ft 9s 7s 22 25 mph 1015.5mb 56f 55f
lun 08/25 11:50 11ft 9s 7s 25 29 mph 1015mb 56f 56f
10:50 10.5ft 10s 7s 22 27 mph 1014.6mb 56f 55f
9:50 11.5ft 11s 7s 22 29 mph 1014.3mb 56f 56f
8:50 11ft 10s 7s 25 31 mph 1013.2mb 56f 56f
7:50 10.5ft 10s 7s 22 27 mph 1013mb 57f 56f
6:50 10ft 9s 6s 25 29 mph 1012mb 57f 56f
5:50 10ft 10s 7s 22 27 mph 1011.3mb 57f 56f
4:50 11ft 10s 7s 22 29 mph 1010.5mb 57f 56f
3:50 12ft 9s 7s 22 27 mph 1009.5mb 57f 56f
2:50 11.5ft 10s 7s 25 31 mph 1008.5mb 58f 56f
1:50 11ft 10s 7s 25 29 mph 1008.1mb 57f 55f
12:50 12ft 10s 7s 25 31 mph 1007.8mb 57f 56f
11:50 11ft 10s 7s 25 31 mph 1007.8mb 57f 56f
10:50 10ft 10s 7s 22 29 mph 1007.9mb 57f 56f
9:50 9.5ft 9s 6s 22 27 mph 1007.7mb 57f 56f
8:50 10ft 9s 7s 20 25 mph 1007.9mb 57f 56f
7:50 10ft 9s 7s 20 25 mph 1007.8mb 57f 56f
6:50 10ft 9s 7s 20 27 mph 1007.8mb 58f 57f
5:50 11ft 9s 7s 25 31 mph 1007.5mb 58f 57f
4:50 12ft 9s 7s 25 29 mph 1007.5mb 58f 57f
3:50 11.5ft 9s 7s 25 29 mph 1007.4mb 58f 57f
2:50 12ft 9s 7s 25 29 mph 1007.4mb 58f 57f
1:50  -   -   -  27 36 mph 1007.4mb 58f 56f
12:50 13ft 9s 7s 29 34 mph 1007.6mb 58f 57f
dom 08/24 11:50 13ft 8s 7s 29 34 mph 1007.6mb 58f 57f
10:50 12.5ft 9s 7s 27 36 mph 1007.6mb 58f 56f
9:50 12ft 8s 7s 29 36 mph 1007.7mb 58f 56f
8:50 12ft 8s 7s 27 36 mph 1008.2mb 58f 57f
7:50 11ft 8s 6s 27 31 mph 1008.4mb 58f 57f
6:50 10ft 8s 6s 27 34 mph 1008.4mb 58f 57f
5:50 8.5ft 7s 6s 27 31 mph 1008.5mb 58f 57f
4:50 9.5ft 7s 6s 25 29 mph 1008.5mb 58f 56f
3:50 8ft 7s 6s 25 29 mph 1008.4mb 58f 56f
2:50  -   -   -  25
mph
1008.5mb - 57f
1:50 8ft 7s 6s 25 29 mph 1008.4mb 58f 57f
12:50 7ft 8s 6s 25 29 mph 1008.6mb 58f 57f
11:50 7ft 6s 5s 25 31 mph 1008.8mb 58f 57f
10:50 6.5ft 8s 5s 22 29 mph 1008.8mb 58f 57f
9:50 6ft 6s 5s 22 27 mph 1008.5mb 58f 57f
8:50 6ft 8s 6s 22 29 mph 1008.2mb 58f 57f
7:50 6ft 7s 5s 16 20 mph 1007.8mb 58f 58f
6:50 6.5ft 8s 6s 18 22 mph 1007.5mb 58f 58f
5:50 7ft 8s 6s 16 20 mph 1006.5mb 58f 58f
4:50 6.5ft 7s 6s 16 20 mph 1006.3mb 58f 57f
3:50 6.5ft 8s 6s 16 20 mph 1006mb 58f 58f
2:50  -   -   -  16 18 mph 1006.2mb 58f 58f
1:50 6ft 8s 6s 11 16 mph 1006.1mb 58f 58f
12:50 6ft 8s 6s 13 16 mph 1005.6mb 58f 58f
sáb 08/23 11:50 6ft 8s 6s 13 18 mph 1005.8mb 58f 58f
10:50 6ft 8s 7s 13 20 mph 1005.3mb 58f 58f
9:50 6ft 8s 6s 11 16 mph 1005.1mb 58f 57f
8:50 7ft 8s 6s 11 13 mph 1004.8mb 58f 57f
7:50 7.5ft 8s 6s 2 7 mph 1004.5mb 58f 56f
6:50 8ft 8s 6s 2 4 mph 1004.5mb 58f 56f
5:50 8ft 8s 6s 7
mph
1004.2mb 58f 57f
4:50 9.5ft 8s 6s 7 9 mph 1004.5mb 58f 57f
3:50 9ft 8s 6s 16 18 mph 1004.3mb 58f 57f
2:50 9ft 7s 6s 22 27 mph 1004.8mb 58f 56f